createdAt,value
2023-04-24T16:58:54.186Z,2.70
2023-04-24T17:03:58.371Z,2.27
2023-04-24T17:09:03.436Z,2.47
2023-04-24T17:14:09.359Z,2.17
2023-04-24T17:19:13.339Z,2.00
2023-04-24T17:24:17.432Z,2.50
2023-04-24T17:29:23.566Z,2.43
2023-04-24T17:34:27.878Z,2.20
2023-04-24T17:39:32.042Z,2.10
2023-04-24T17:44:38.300Z,2.20
2023-04-24T17:49:43.130Z,2.03
2023-04-24T17:54:49.179Z,1.93
2023-04-24T17:59:55.232Z,2.00
2023-04-24T18:04:59.580Z,2.00
2023-04-24T18:10:03.799Z,1.90
2023-04-24T18:15:14.830Z,2.00
2023-04-24T18:20:20.301Z,2.13
2023-04-24T18:25:26.222Z,2.17
2023-04-24T18:30:34.168Z,2.30
2023-04-24T18:35:40.412Z,2.00
2023-04-24T18:40:44.632Z,2.20
2023-04-24T18:45:50.829Z,2.40
2023-04-24T18:50:54.856Z,2.03
2023-04-24T18:55:58.834Z,2.03
2023-04-24T19:01:06.849Z,2.13
2023-04-24T19:06:12.088Z,2.43
2023-04-24T19:11:16.126Z,2.40
2023-04-24T19:16:22.577Z,2.40
2023-04-24T19:21:26.876Z,2.60
2023-04-24T19:26:31.025Z,2.33
2023-04-24T19:31:37.362Z,2.53
2023-04-24T19:36:42.491Z,2.87
2023-04-24T19:41:46.476Z,2.63
2023-04-24T19:46:53.192Z,2.80
2023-04-24T19:51:57.295Z,2.57
2023-04-24T19:57:23.335Z,3.00
2023-04-24T20:02:42.493Z,2.70
2023-04-24T20:07:51.172Z,2.70
2023-04-24T20:12:55.661Z,3.27
2023-04-24T20:18:01.988Z,3.00
2023-04-24T20:23:06.563Z,2.90
2023-04-24T20:28:10.511Z,2.93
2023-04-24T20:33:16.466Z,3.27
2023-04-24T20:38:22.011Z,2.40
2023-04-24T20:43:28.379Z,2.90
2023-04-24T20:48:35.734Z,2.53
2023-04-24T20:53:39.945Z,2.20
2023-04-24T20:58:46.261Z,2.90
2023-04-24T21:03:53.328Z,2.87
2023-04-24T21:08:58.190Z,3.20
2023-04-24T21:14:02.219Z,3.07
2023-04-24T21:19:08.555Z,3.07
2023-04-24T21:24:12.558Z,3.40
2023-04-24T21:29:16.806Z,4.13
2023-04-24T21:34:23.129Z,3.40
2023-04-24T21:39:27.404Z,4.20
2023-04-24T21:44:31.970Z,4.10
2023-04-24T21:49:38.200Z,3.43
2023-04-24T21:54:42.164Z,4.13
2023-04-24T21:59:47.076Z,4.47
2023-04-24T22:04:55.610Z,4.03
